sensor_id;sensor_type;location;lat;lon;timestamp;P1;durP1;ratioP1;P2;durP2;ratioP2
36829;SDS011;22767;47.328;9.640;2023-02-28T00:00:47;6.93;;;4.85;;
36829;SDS011;22767;47.328;9.640;2023-02-28T00:03:13;8.00;;;5.25;;
36829;SDS011;22767;47.328;9.640;2023-02-28T00:05:39;6.10;;;4.75;;
36829;SDS011;22767;47.328;9.640;2023-02-28T00:08:06;7.90;;;5.22;;
36829;SDS011;22767;47.328;9.640;2023-02-28T00:10:33;7.75;;;5.13;;
36829;SDS011;22767;47.328;9.640;2023-02-28T00:13:00;6.10;;;5.03;;
36829;SDS011;22767;47.328;9.640;2023-02-28T00:15:26;5.53;;;4.50;;
36829;SDS011;22767;47.328;9.640;2023-02-28T00:17:52;7.25;;;5.13;;
36829;SDS011;22767;47.328;9.640;2023-02-28T00:20:18;7.65;;;5.32;;
36829;SDS011;22767;47.328;9.640;2023-02-28T00:22:46;6.35;;;4.90;;
36829;SDS011;22767;47.328;9.640;2023-02-28T00:25:13;6.43;;;4.80;;
36829;SDS011;22767;47.328;9.640;2023-02-28T00:27:39;6.05;;;5.32;;
36829;SDS011;22767;47.328;9.640;2023-02-28T00:30:06;6.97;;;5.22;;
36829;SDS011;22767;47.328;9.640;2023-02-28T00:32:33;5.65;;;4.88;;
36829;SDS011;22767;47.328;9.640;2023-02-28T00:34:59;5.72;;;5.00;;
36829;SDS011;22767;47.328;9.640;2023-02-28T00:37:25;7.43;;;4.90;;
36829;SDS011;22767;47.328;9.640;2023-02-28T00:39:52;7.03;;;4.80;;
36829;SDS011;22767;47.328;9.640;2023-02-28T00:42:18;6.18;;;4.97;;
36829;SDS011;22767;47.328;9.640;2023-02-28T00:44:44;6.70;;;5.15;;
36829;SDS011;22767;47.328;9.640;2023-02-28T00:47:10;6.93;;;5.30;;
36829;SDS011;22767;47.328;9.640;2023-02-28T00:49:36;5.95;;;4.80;;
36829;SDS011;22767;47.328;9.640;2023-02-28T00:52:02;9.63;;;5.40;;
36829;SDS011;22767;47.328;9.640;2023-02-28T00:54:29;7.35;;;5.28;;
36829;SDS011;22767;47.328;9.640;2023-02-28T00:56:55;7.15;;;5.15;;
36829;SDS011;22767;47.328;9.640;2023-02-28T00:59:21;6.90;;;5.55;;
36829;SDS011;22767;47.328;9.640;2023-02-28T01:01:47;7.65;;;5.30;;
36829;SDS011;22767;47.328;9.640;2023-02-28T01:04:13;8.85;;;5.45;;
36829;SDS011;22767;47.328;9.640;2023-02-28T01:06:39;8.75;;;5.57;;
36829;SDS011;22767;47.328;9.640;2023-02-28T01:09:06;8.85;;;6.18;;
36829;SDS011;22767;47.328;9.640;2023-02-28T01:11:32;7.65;;;5.82;;
36829;SDS011;22767;47.328;9.640;2023-02-28T01:13:59;7.78;;;5.70;;
36829;SDS011;22767;47.328;9.640;2023-02-28T01:16:25;6.50;;;5.82;;
36829;SDS011;22767;47.328;9.640;2023-02-28T01:18:52;8.80;;;6.10;;
36829;SDS011;22767;47.328;9.640;2023-02-28T01:21:18;9.45;;;6.38;;
36829;SDS011;22767;47.328;9.640;2023-02-28T01:23:45;8.25;;;5.63;;
36829;SDS011;22767;47.328;9.640;2023-02-28T01:26:18;8.18;;;5.47;;
36829;SDS011;22767;47.328;9.640;2023-02-28T01:28:44;8.05;;;5.95;;
36829;SDS011;22767;47.328;9.640;2023-02-28T01:31:10;8.15;;;5.82;;
36829;SDS011;22767;47.328;9.640;2023-02-28T01:33:37;6.82;;;5.55;;
36829;SDS011;22767;47.328;9.640;2023-02-28T01:36:04;9.10;;;6.10;;
36829;SDS011;22767;47.328;9.640;2023-02-28T01:38:30;8.20;;;6.00;;
36829;SDS011;22767;47.328;9.640;2023-02-28T01:40:57;8.98;;;6.05;;
36829;SDS011;22767;47.328;9.640;2023-02-28T01:45:53;6.78;;;5.53;;
36829;SDS011;22767;47.328;9.640;2023-02-28T01:48:20;9.25;;;6.28;;
36829;SDS011;22767;47.328;9.640;2023-02-28T01:50:46;8.10;;;5.80;;
36829;SDS011;22767;47.328;9.640;2023-02-28T01:53:18;7.57;;;5.72;;
36829;SDS011;22767;47.328;9.640;2023-02-28T01:55:46;8.68;;;5.72;;
36829;SDS011;22767;47.328;9.640;2023-02-28T01:58:13;7.80;;;5.80;;
36829;SDS011;22767;47.328;9.640;2023-02-28T02:00:39;7.18;;;5.88;;
36829;SDS011;22767;47.328;9.640;2023-02-28T02:03:08;7.70;;;5.55;;
36829;SDS011;22767;47.328;9.640;2023-02-28T02:05:37;8.10;;;5.45;;
36829;SDS011;22767;47.328;9.640;2023-02-28T02:08:07;5.95;;;5.35;;
36829;SDS011;22767;47.328;9.640;2023-02-28T02:10:54;7.13;;;5.65;;
36829;SDS011;22767;47.328;9.640;2023-02-28T02:29:14;8.45;;;5.78;;
36829;SDS011;22767;47.328;9.640;2023-02-28T02:39:56;9.02;;;6.22;;
36829;SDS011;22767;47.328;9.640;2023-02-28T02:42:33;8.98;;;6.15;;
36829;SDS011;22767;47.328;9.640;2023-02-28T02:45:04;6.68;;;5.90;;
36829;SDS011;22767;47.328;9.640;2023-02-28T02:47:33;7.70;;;6.25;;
36829;SDS011;22767;47.328;9.640;2023-02-28T02:50:01;8.90;;;6.68;;
36829;SDS011;22767;47.328;9.640;2023-02-28T02:52:34;11.02;;;6.97;;
36829;SDS011;22767;47.328;9.640;2023-02-28T02:55:02;6.85;;;6.00;;
36829;SDS011;22767;47.328;9.640;2023-02-28T02:57:30;9.23;;;6.75;;
36829;SDS011;22767;47.328;9.640;2023-02-28T02:59:57;8.65;;;6.70;;
36829;SDS011;22767;47.328;9.640;2023-02-28T03:02:24;8.55;;;6.22;;
36829;SDS011;22767;47.328;9.640;2023-02-28T03:04:52;8.57;;;5.97;;
36829;SDS011;22767;47.328;9.640;2023-02-28T03:07:19;7.65;;;6.07;;
36829;SDS011;22767;47.328;9.640;2023-02-28T03:09:54;9.40;;;6.60;;
36829;SDS011;22767;47.328;9.640;2023-02-28T03:12:21;8.10;;;6.25;;
36829;SDS011;22767;47.328;9.640;2023-02-28T03:14:56;8.43;;;6.07;;
36829;SDS011;22767;47.328;9.640;2023-02-28T03:17:46;8.63;;;6.47;;
36829;SDS011;22767;47.328;9.640;2023-02-28T03:20:27;8.00;;;6.53;;
36829;SDS011;22767;47.328;9.640;2023-02-28T03:25:29;9.48;;;6.38;;
36829;SDS011;22767;47.328;9.640;2023-02-28T03:28:03;7.10;;;6.13;;
36829;SDS011;22767;47.328;9.640;2023-02-28T03:35:48;10.63;;;7.30;;
36829;SDS011;22767;47.328;9.640;2023-02-28T03:38:25;11.68;;;6.82;;
36829;SDS011;22767;47.328;9.640;2023-02-28T03:40:58;10.90;;;7.20;;
36829;SDS011;22767;47.328;9.640;2023-02-28T03:43:27;12.48;;;7.40;;
36829;SDS011;22767;47.328;9.640;2023-02-28T03:45:54;9.45;;;7.32;;
36829;SDS011;22767;47.328;9.640;2023-02-28T03:50:51;10.88;;;6.82;;
36829;SDS011;22767;47.328;9.640;2023-02-28T03:53:22;8.48;;;6.30;;
36829;SDS011;22767;47.328;9.640;2023-02-28T03:55:59;10.32;;;7.65;;
36829;SDS011;22767;47.328;9.640;2023-02-28T04:00:59;10.23;;;7.03;;
36829;SDS011;22767;47.328;9.640;2023-02-28T04:03:33;9.75;;;7.10;;
36829;SDS011;22767;47.328;9.640;2023-02-28T04:05:59;9.98;;;6.90;;
36829;SDS011;22767;47.328;9.640;2023-02-28T04:08:25;10.70;;;7.13;;
36829;SDS011;22767;47.328;9.640;2023-02-28T04:11:00;9.57;;;7.40;;
36829;SDS011;22767;47.328;9.640;2023-02-28T04:13:28;10.90;;;6.90;;
36829;SDS011;22767;47.328;9.640;2023-02-28T04:15:54;10.05;;;7.47;;
36829;SDS011;22767;47.328;9.640;2023-02-28T04:18:20;9.60;;;7.07;;
36829;SDS011;22767;47.328;9.640;2023-02-28T04:20:47;9.20;;;7.70;;
36829;SDS011;22767;47.328;9.640;2023-02-28T04:23:13;12.50;;;7.70;;
36829;SDS011;22767;47.328;9.640;2023-02-28T04:25:39;9.07;;;7.07;;
36829;SDS011;22767;47.328;9.640;2023-02-28T04:28:06;8.40;;;6.95;;
36829;SDS011;22767;47.328;9.640;2023-02-28T04:30:32;9.88;;;7.03;;
36829;SDS011;22767;47.328;9.640;2023-02-28T04:32:58;9.27;;;7.00;;
36829;SDS011;22767;47.328;9.640;2023-02-28T04:35:25;8.57;;;7.13;;
36829;SDS011;22767;47.328;9.640;2023-02-28T04:37:51;9.55;;;7.50;;
36829;SDS011;22767;47.328;9.640;2023-02-28T04:40:17;9.32;;;7.15;;
36829;SDS011;22767;47.328;9.640;2023-02-28T04:42:43;8.07;;;7.05;;
36829;SDS011;22767;47.328;9.640;2023-02-28T04:45:10;8.95;;;7.07;;
36829;SDS011;22767;47.328;9.640;2023-02-28T04:47:36;10.63;;;7.22;;
36829;SDS011;22767;47.328;9.640;2023-02-28T04:50:02;8.77;;;7.03;;
36829;SDS011;22767;47.328;9.640;2023-02-28T04:52:28;8.75;;;7.05;;
36829;SDS011;22767;47.328;9.640;2023-02-28T04:54:54;11.88;;;6.72;;
36829;SDS011;22767;47.328;9.640;2023-02-28T04:57:21;9.95;;;6.57;;
36829;SDS011;22767;47.328;9.640;2023-02-28T04:59:47;9.65;;;6.60;;
36829;SDS011;22767;47.328;9.640;2023-02-28T05:02:13;9.13;;;6.55;;
36829;SDS011;22767;47.328;9.640;2023-02-28T05:04:39;9.40;;;7.32;;
36829;SDS011;22767;47.328;9.640;2023-02-28T05:07:05;8.50;;;6.50;;
36829;SDS011;22767;47.328;9.640;2023-02-28T05:09:31;8.60;;;6.47;;
36829;SDS011;22767;47.328;9.640;2023-02-28T05:12:00;9.60;;;6.78;;
36829;SDS011;22767;47.328;9.640;2023-02-28T05:14:26;9.23;;;6.55;;
36829;SDS011;22767;47.328;9.640;2023-02-28T05:16:52;9.60;;;7.32;;
36829;SDS011;22767;47.328;9.640;2023-02-28T05:19:19;8.20;;;7.25;;
36829;SDS011;22767;47.328;9.640;2023-02-28T05:21:50;8.45;;;7.00;;
36829;SDS011;22767;47.328;9.640;2023-02-28T05:24:17;9.65;;;7.30;;
36829;SDS011;22767;47.328;9.640;2023-02-28T05:26:50;12.13;;;7.65;;
36829;SDS011;22767;47.328;9.640;2023-02-28T05:29:17;10.65;;;8.07;;
36829;SDS011;22767;47.328;9.640;2023-02-28T05:31:44;9.77;;;7.10;;
36829;SDS011;22767;47.328;9.640;2023-02-28T05:34:10;8.90;;;7.43;;
36829;SDS011;22767;47.328;9.640;2023-02-28T05:36:37;9.52;;;7.22;;
36829;SDS011;22767;47.328;9.640;2023-02-28T05:39:07;10.43;;;7.68;;
36829;SDS011;22767;47.328;9.640;2023-02-28T05:41:37;11.60;;;7.32;;
36829;SDS011;22767;47.328;9.640;2023-02-28T05:44:03;8.65;;;7.00;;
36829;SDS011;22767;47.328;9.640;2023-02-28T05:46:30;8.63;;;7.07;;
36829;SDS011;22767;47.328;9.640;2023-02-28T05:48:56;9.45;;;7.40;;
36829;SDS011;22767;47.328;9.640;2023-02-28T05:51:25;9.88;;;6.82;;
36829;SDS011;22767;47.328;9.640;2023-02-28T05:53:51;9.93;;;7.28;;
36829;SDS011;22767;47.328;9.640;2023-02-28T05:56:17;10.10;;;7.88;;
36829;SDS011;22767;47.328;9.640;2023-02-28T05:58:43;11.05;;;7.90;;
36829;SDS011;22767;47.328;9.640;2023-02-28T06:03:54;8.98;;;7.47;;
36829;SDS011;22767;47.328;9.640;2023-02-28T06:06:20;10.05;;;7.78;;
36829;SDS011;22767;47.328;9.640;2023-02-28T06:08:46;10.60;;;7.60;;
36829;SDS011;22767;47.328;9.640;2023-02-28T06:11:12;10.20;;;7.22;;
36829;SDS011;22767;47.328;9.640;2023-02-28T06:13:38;10.05;;;7.82;;
36829;SDS011;22767;47.328;9.640;2023-02-28T06:16:05;12.48;;;7.78;;
36829;SDS011;22767;47.328;9.640;2023-02-28T06:18:31;13.20;;;7.95;;
36829;SDS011;22767;47.328;9.640;2023-02-28T06:20:57;9.98;;;8.02;;
36829;SDS011;22767;47.328;9.640;2023-02-28T06:23:23;11.23;;;7.70;;
36829;SDS011;22767;47.328;9.640;2023-02-28T06:25:49;10.60;;;8.32;;
36829;SDS011;22767;47.328;9.640;2023-02-28T06:28:18;11.48;;;8.00;;
36829;SDS011;22767;47.328;9.640;2023-02-28T06:30:44;10.48;;;8.20;;
36829;SDS011;22767;47.328;9.640;2023-02-28T06:33:10;10.70;;;8.52;;
36829;SDS011;22767;47.328;9.640;2023-02-28T06:35:36;12.32;;;8.80;;
36829;SDS011;22767;47.328;9.640;2023-02-28T06:38:03;11.40;;;7.93;;
36829;SDS011;22767;47.328;9.640;2023-02-28T06:40:29;11.93;;;8.50;;
36829;SDS011;22767;47.328;9.640;2023-02-28T06:42:59;10.52;;;8.40;;
36829;SDS011;22767;47.328;9.640;2023-02-28T06:45:25;15.32;;;9.32;;
36829;SDS011;22767;47.328;9.640;2023-02-28T06:47:51;14.73;;;9.15;;
36829;SDS011;22767;47.328;9.640;2023-02-28T06:50:18;14.40;;;8.88;;
36829;SDS011;22767;47.328;9.640;2023-02-28T06:52:45;12.23;;;9.48;;
36829;SDS011;22767;47.328;9.640;2023-02-28T06:55:11;15.02;;;9.90;;
36829;SDS011;22767;47.328;9.640;2023-02-28T06:57:38;13.52;;;8.95;;
36829;SDS011;22767;47.328;9.640;2023-02-28T07:00:06;11.15;;;8.50;;
36829;SDS011;22767;47.328;9.640;2023-02-28T07:02:33;13.65;;;7.88;;
36829;SDS011;22767;47.328;9.640;2023-02-28T07:05:00;10.98;;;8.07;;
36829;SDS011;22767;47.328;9.640;2023-02-28T07:07:26;9.90;;;7.68;;
36829;SDS011;22767;47.328;9.640;2023-02-28T07:09:52;11.40;;;8.15;;
36829;SDS011;22767;47.328;9.640;2023-02-28T07:12:18;10.88;;;8.30;;
36829;SDS011;22767;47.328;9.640;2023-02-28T07:14:44;10.05;;;7.90;;
36829;SDS011;22767;47.328;9.640;2023-02-28T07:17:10;10.82;;;8.20;;
36829;SDS011;22767;47.328;9.640;2023-02-28T07:19:37;11.88;;;8.18;;
36829;SDS011;22767;47.328;9.640;2023-02-28T07:22:04;9.32;;;8.32;;
36829;SDS011;22767;47.328;9.640;2023-02-28T07:24:30;10.85;;;7.63;;
36829;SDS011;22767;47.328;9.640;2023-02-28T07:26:56;10.35;;;8.20;;
36829;SDS011;22767;47.328;9.640;2023-02-28T07:29:22;9.25;;;7.78;;
36829;SDS011;22767;47.328;9.640;2023-02-28T07:31:48;10.48;;;8.35;;
36829;SDS011;22767;47.328;9.640;2023-02-28T07:34:18;10.50;;;8.18;;
36829;SDS011;22767;47.328;9.640;2023-02-28T07:36:44;12.20;;;8.15;;
36829;SDS011;22767;47.328;9.640;2023-02-28T07:39:10;11.20;;;7.65;;
36829;SDS011;22767;47.328;9.640;2023-02-28T07:41:37;12.68;;;8.02;;
36829;SDS011;22767;47.328;9.640;2023-02-28T07:44:09;10.27;;;8.48;;
36829;SDS011;22767;47.328;9.640;2023-02-28T07:46:35;11.02;;;8.07;;
36829;SDS011;22767;47.328;9.640;2023-02-28T07:49:01;11.82;;;8.52;;
36829;SDS011;22767;47.328;9.640;2023-02-28T07:51:30;13.57;;;7.97;;
36829;SDS011;22767;47.328;9.640;2023-02-28T07:53:56;14.07;;;8.40;;
36829;SDS011;22767;47.328;9.640;2023-02-28T07:56:22;13.35;;;8.55;;
36829;SDS011;22767;47.328;9.640;2023-02-28T07:58:49;10.60;;;7.93;;
36829;SDS011;22767;47.328;9.640;2023-02-28T08:01:15;11.50;;;8.40;;
36829;SDS011;22767;47.328;9.640;2023-02-28T08:03:42;12.63;;;8.75;;
36829;SDS011;22767;47.328;9.640;2023-02-28T08:06:14;11.35;;;8.50;;
36829;SDS011;22767;47.328;9.640;2023-02-28T08:08:41;12.75;;;8.70;;
36829;SDS011;22767;47.328;9.640;2023-02-28T08:11:07;11.65;;;8.90;;
36829;SDS011;22767;47.328;9.640;2023-02-28T08:13:33;14.82;;;9.10;;
36829;SDS011;22767;47.328;9.640;2023-02-28T08:16:01;12.95;;;8.93;;
36829;SDS011;22767;47.328;9.640;2023-02-28T08:18:27;13.05;;;9.32;;
36829;SDS011;22767;47.328;9.640;2023-02-28T08:20:53;12.77;;;9.40;;
36829;SDS011;22767;47.328;9.640;2023-02-28T08:23:20;12.40;;;8.82;;
36829;SDS011;22767;47.328;9.640;2023-02-28T08:25:52;12.10;;;9.23;;
36829;SDS011;22767;47.328;9.640;2023-02-28T08:28:18;11.50;;;9.07;;
36829;SDS011;22767;47.328;9.640;2023-02-28T08:30:44;11.05;;;9.07;;
36829;SDS011;22767;47.328;9.640;2023-02-28T08:33:10;14.23;;;9.43;;
36829;SDS011;22767;47.328;9.640;2023-02-28T08:35:36;12.77;;;9.15;;
36829;SDS011;22767;47.328;9.640;2023-02-28T08:38:02;12.77;;;9.50;;
36829;SDS011;22767;47.328;9.640;2023-02-28T08:40:29;13.05;;;9.23;;
36829;SDS011;22767;47.328;9.640;2023-02-28T08:42:55;13.90;;;9.40;;
36829;SDS011;22767;47.328;9.640;2023-02-28T08:45:21;13.57;;;8.88;;
36829;SDS011;22767;47.328;9.640;2023-02-28T08:47:47;15.13;;;9.57;;
36829;SDS011;22767;47.328;9.640;2023-02-28T08:50:13;10.48;;;8.18;;
36829;SDS011;22767;47.328;9.640;2023-02-28T08:52:42;11.30;;;8.93;;
36829;SDS011;22767;47.328;9.640;2023-02-28T08:55:08;14.40;;;9.40;;
36829;SDS011;22767;47.328;9.640;2023-02-28T08:57:35;12.85;;;9.43;;
36829;SDS011;22767;47.328;9.640;2023-02-28T09:00:02;15.18;;;9.85;;
36829;SDS011;22767;47.328;9.640;2023-02-28T09:02:29;12.48;;;9.30;;
36829;SDS011;22767;47.328;9.640;2023-02-28T09:04:56;14.45;;;9.40;;
36829;SDS011;22767;47.328;9.640;2023-02-28T09:07:23;11.63;;;8.98;;
36829;SDS011;22767;47.328;9.640;2023-02-28T09:09:49;13.10;;;9.30;;
36829;SDS011;22767;47.328;9.640;2023-02-28T09:12:23;11.40;;;9.10;;
36829;SDS011;22767;47.328;9.640;2023-02-28T09:14:50;13.75;;;9.27;;
36829;SDS011;22767;47.328;9.640;2023-02-28T09:17:16;13.65;;;9.07;;
36829;SDS011;22767;47.328;9.640;2023-02-28T09:19:43;13.98;;;9.57;;
36829;SDS011;22767;47.328;9.640;2023-02-28T09:22:10;10.52;;;8.68;;
36829;SDS011;22767;47.328;9.640;2023-02-28T09:24:37;14.10;;;8.30;;
36829;SDS011;22767;47.328;9.640;2023-02-28T09:27:03;11.88;;;9.13;;
36829;SDS011;22767;47.328;9.640;2023-02-28T09:29:30;11.10;;;8.27;;
36829;SDS011;22767;47.328;9.640;2023-02-28T09:31:56;10.60;;;8.45;;
36829;SDS011;22767;47.328;9.640;2023-02-28T09:34:24;11.43;;;8.57;;
36829;SDS011;22767;47.328;9.640;2023-02-28T09:36:50;11.45;;;8.65;;
36829;SDS011;22767;47.328;9.640;2023-02-28T09:39:23;10.55;;;8.52;;
36829;SDS011;22767;47.328;9.640;2023-02-28T09:41:52;10.63;;;8.55;;
36829;SDS011;22767;47.328;9.640;2023-02-28T09:44:24;11.52;;;8.63;;
36829;SDS011;22767;47.328;9.640;2023-02-28T09:46:54;11.13;;;8.60;;
36829;SDS011;22767;47.328;9.640;2023-02-28T09:49:25;10.40;;;7.70;;
36829;SDS011;22767;47.328;9.640;2023-02-28T09:51:58;10.43;;;8.30;;
36829;SDS011;22767;47.328;9.640;2023-02-28T09:54:28;10.40;;;8.20;;
36829;SDS011;22767;47.328;9.640;2023-02-28T09:56:56;10.52;;;8.13;;
36829;SDS011;22767;47.328;9.640;2023-02-28T10:01:54;9.90;;;8.15;;
36829;SDS011;22767;47.328;9.640;2023-02-28T10:09:43;9.70;;;7.97;;
36829;SDS011;22767;47.328;9.640;2023-02-28T10:12:10;9.52;;;7.78;;
36829;SDS011;22767;47.328;9.640;2023-02-28T10:14:37;9.93;;;7.40;;
36829;SDS011;22767;47.328;9.640;2023-02-28T10:17:10;11.95;;;8.52;;
36829;SDS011;22767;47.328;9.640;2023-02-28T10:19:46;11.07;;;8.23;;
36829;SDS011;22767;47.328;9.640;2023-02-28T10:22:18;12.05;;;7.65;;
36829;SDS011;22767;47.328;9.640;2023-02-28T10:24:49;9.27;;;7.20;;
36829;SDS011;22767;47.328;9.640;2023-02-28T10:27:23;10.30;;;7.80;;
36829;SDS011;22767;47.328;9.640;2023-02-28T10:29:50;11.25;;;8.45;;
36829;SDS011;22767;47.328;9.640;2023-02-28T10:32:17;11.48;;;8.02;;
36829;SDS011;22767;47.328;9.640;2023-02-28T10:34:44;11.25;;;8.90;;
36829;SDS011;22767;47.328;9.640;2023-02-28T10:37:11;12.35;;;8.05;;
36829;SDS011;22767;47.328;9.640;2023-02-28T10:39:42;10.02;;;7.88;;
36829;SDS011;22767;47.328;9.640;2023-02-28T10:42:19;10.98;;;8.57;;
36829;SDS011;22767;47.328;9.640;2023-02-28T10:44:45;10.57;;;9.13;;
36829;SDS011;22767;47.328;9.640;2023-02-28T10:47:15;10.40;;;8.45;;
36829;SDS011;22767;47.328;9.640;2023-02-28T10:49:48;12.27;;;8.40;;
36829;SDS011;22767;47.328;9.640;2023-02-28T10:52:31;11.00;;;8.20;;
36829;SDS011;22767;47.328;9.640;2023-02-28T10:55:21;11.73;;;8.70;;
36829;SDS011;22767;47.328;9.640;2023-02-28T10:57:45;12.75;;;9.23;;
36829;SDS011;22767;47.328;9.640;2023-02-28T11:00:22;10.55;;;8.38;;
36829;SDS011;22767;47.328;9.640;2023-02-28T11:02:50;9.48;;;8.10;;
36829;SDS011;22767;47.328;9.640;2023-02-28T11:05:27;11.45;;;8.63;;
36829;SDS011;22767;47.328;9.640;2023-02-28T11:10:30;13.30;;;9.10;;
36829;SDS011;22767;47.328;9.640;2023-02-28T11:12:59;13.52;;;9.20;;
36829;SDS011;22767;47.328;9.640;2023-02-28T11:15:29;15.38;;;9.57;;
36829;SDS011;22767;47.328;9.640;2023-02-28T11:18:00;10.93;;;9.10;;
36829;SDS011;22767;47.328;9.640;2023-02-28T11:20:28;13.05;;;8.82;;
36829;SDS011;22767;47.328;9.640;2023-02-28T11:22:56;11.25;;;8.88;;
36829;SDS011;22767;47.328;9.640;2023-02-28T11:25:32;15.80;;;10.43;;
36829;SDS011;22767;47.328;9.640;2023-02-28T11:28:03;12.15;;;9.63;;
36829;SDS011;22767;47.328;9.640;2023-02-28T11:30:33;13.98;;;9.98;;
36829;SDS011;22767;47.328;9.640;2023-02-28T11:33:00;11.50;;;9.15;;
36829;SDS011;22767;47.328;9.640;2023-02-28T11:35:30;11.25;;;9.65;;
36829;SDS011;22767;47.328;9.640;2023-02-28T11:37:59;11.77;;;9.65;;
36829;SDS011;22767;47.328;9.640;2023-02-28T11:42:57;13.55;;;9.68;;
36829;SDS011;22767;47.328;9.640;2023-02-28T11:52:52;13.90;;;10.30;;
36829;SDS011;22767;47.328;9.640;2023-02-28T11:55:31;11.20;;;9.05;;
36829;SDS011;22767;47.328;9.640;2023-02-28T12:08:12;12.93;;;9.73;;
36829;SDS011;22767;47.328;9.640;2023-02-28T12:24:24;11.93;;;9.60;;
36829;SDS011;22767;47.328;9.640;2023-02-28T12:26:52;11.25;;;9.68;;
36829;SDS011;22767;47.328;9.640;2023-02-28T12:29:29;12.15;;;9.88;;
36829;SDS011;22767;47.328;9.640;2023-02-28T12:31:59;12.98;;;10.20;;
36829;SDS011;22767;47.328;9.640;2023-02-28T12:34:36;12.95;;;9.80;;
36829;SDS011;22767;47.328;9.640;2023-02-28T12:37:07;15.07;;;10.00;;
36829;SDS011;22767;47.328;9.640;2023-02-28T12:39:44;11.43;;;9.43;;
36829;SDS011;22767;47.328;9.640;2023-02-28T12:42:17;13.40;;;9.93;;
36829;SDS011;22767;47.328;9.640;2023-02-28T12:47:18;13.30;;;10.05;;
36829;SDS011;22767;47.328;9.640;2023-02-28T12:49:58;12.95;;;9.90;;
36829;SDS011;22767;47.328;9.640;2023-02-28T12:52:28;12.07;;;9.30;;
36829;SDS011;22767;47.328;9.640;2023-02-28T12:57:38;10.98;;;9.32;;
36829;SDS011;22767;47.328;9.640;2023-02-28T13:00:19;12.20;;;9.52;;
36829;SDS011;22767;47.328;9.640;2023-02-28T13:02:53;14.35;;;9.30;;
36829;SDS011;22767;47.328;9.640;2023-02-28T13:10:17;11.60;;;9.20;;
36829;SDS011;22767;47.328;9.640;2023-02-28T13:12:47;11.15;;;9.43;;
36829;SDS011;22767;47.328;9.640;2023-02-28T13:17:40;10.52;;;9.25;;
36829;SDS011;22767;47.328;9.640;2023-02-28T13:20:14;13.77;;;10.02;;
36829;SDS011;22767;47.328;9.640;2023-02-28T13:22:42;12.38;;;9.40;;
36829;SDS011;22767;47.328;9.640;2023-02-28T13:27:47;11.25;;;9.77;;
36829;SDS011;22767;47.328;9.640;2023-02-28T13:35:50;13.32;;;10.05;;
36829;SDS011;22767;47.328;9.640;2023-02-28T13:38:32;12.55;;;9.90;;
36829;SDS011;22767;47.328;9.640;2023-02-28T13:46:33;13.25;;;10.13;;
36829;SDS011;22767;47.328;9.640;2023-02-28T13:51:45;13.23;;;10.15;;
36829;SDS011;22767;47.328;9.640;2023-02-28T14:02:13;13.60;;;9.93;;
36829;SDS011;22767;47.328;9.640;2023-02-28T14:07:25;14.90;;;9.73;;
36829;SDS011;22767;47.328;9.640;2023-02-28T14:09:57;12.40;;;10.38;;
36829;SDS011;22767;47.328;9.640;2023-02-28T14:18:02;11.50;;;9.48;;
36829;SDS011;22767;47.328;9.640;2023-02-28T14:20:31;14.40;;;10.20;;
36829;SDS011;22767;47.328;9.640;2023-02-28T14:25:38;12.73;;;10.02;;
36829;SDS011;22767;47.328;9.640;2023-02-28T14:30:51;12.13;;;9.55;;
36829;SDS011;22767;47.328;9.640;2023-02-28T14:33:19;15.10;;;10.25;;
36829;SDS011;22767;47.328;9.640;2023-02-28T14:36:03;12.35;;;9.57;;
36829;SDS011;22767;47.328;9.640;2023-02-28T14:38:31;13.05;;;10.30;;
36829;SDS011;22767;47.328;9.640;2023-02-28T14:40:58;16.50;;;10.05;;
36829;SDS011;22767;47.328;9.640;2023-02-28T14:43:27;11.57;;;9.23;;
36829;SDS011;22767;47.328;9.640;2023-02-28T14:45:57;15.60;;;10.80;;
36829;SDS011;22767;47.328;9.640;2023-02-28T14:48:23;12.27;;;10.05;;
36829;SDS011;22767;47.328;9.640;2023-02-28T14:50:52;14.13;;;10.80;;
36829;SDS011;22767;47.328;9.640;2023-02-28T14:53:19;19.63;;;12.68;;
36829;SDS011;22767;47.328;9.640;2023-02-28T14:55:47;16.15;;;10.63;;
36829;SDS011;22767;47.328;9.640;2023-02-28T14:58:27;13.90;;;10.65;;
36829;SDS011;22767;47.328;9.640;2023-02-28T15:00:54;15.38;;;11.02;;
36829;SDS011;22767;47.328;9.640;2023-02-28T15:03:22;14.88;;;9.95;;
36829;SDS011;22767;47.328;9.640;2023-02-28T15:08:43;15.15;;;11.48;;
36829;SDS011;22767;47.328;9.640;2023-02-28T15:11:17;14.35;;;10.02;;
36829;SDS011;22767;47.328;9.640;2023-02-28T15:13:50;15.10;;;10.73;;
36829;SDS011;22767;47.328;9.640;2023-02-28T15:16:28;14.27;;;10.23;;
36829;SDS011;22767;47.328;9.640;2023-02-28T15:19:00;11.82;;;9.90;;
36829;SDS011;22767;47.328;9.640;2023-02-28T15:21:31;12.70;;;10.02;;
36829;SDS011;22767;47.328;9.640;2023-02-28T15:26:49;14.40;;;10.80;;
36829;SDS011;22767;47.328;9.640;2023-02-28T15:29:17;14.02;;;10.38;;
36829;SDS011;22767;47.328;9.640;2023-02-28T15:31:49;13.77;;;10.88;;
36829;SDS011;22767;47.328;9.640;2023-02-28T15:34:20;13.02;;;11.10;;
36829;SDS011;22767;47.328;9.640;2023-02-28T15:36:46;15.05;;;11.77;;
36829;SDS011;22767;47.328;9.640;2023-02-28T15:39:23;14.65;;;10.98;;
36829;SDS011;22767;47.328;9.640;2023-02-28T15:41:52;13.63;;;10.48;;
36829;SDS011;22767;47.328;9.640;2023-02-28T15:44:25;16.30;;;10.60;;
36829;SDS011;22767;47.328;9.640;2023-02-28T15:47:03;13.07;;;10.30;;
36829;SDS011;22767;47.328;9.640;2023-02-28T15:50:06;13.38;;;11.02;;
36829;SDS011;22767;47.328;9.640;2023-02-28T15:54:56;13.65;;;11.43;;
36829;SDS011;22767;47.328;9.640;2023-02-28T15:57:28;12.98;;;10.35;;
36829;SDS011;22767;47.328;9.640;2023-02-28T16:02:22;14.55;;;10.65;;
36829;SDS011;22767;47.328;9.640;2023-02-28T16:04:56;15.80;;;11.68;;
36829;SDS011;22767;47.328;9.640;2023-02-28T16:07:23;17.35;;;12.55;;
36829;SDS011;22767;47.328;9.640;2023-02-28T16:09:49;14.07;;;11.63;;
36829;SDS011;22767;47.328;9.640;2023-02-28T16:12:16;15.30;;;11.70;;
36829;SDS011;22767;47.328;9.640;2023-02-28T16:14:42;15.98;;;12.80;;
36829;SDS011;22767;47.328;9.640;2023-02-28T16:17:29;17.67;;;12.80;;
36829;SDS011;22767;47.328;9.640;2023-02-28T16:19:55;17.00;;;11.52;;
36829;SDS011;22767;47.328;9.640;2023-02-28T16:22:22;16.65;;;11.70;;
36829;SDS011;22767;47.328;9.640;2023-02-28T16:24:48;19.02;;;12.68;;
36829;SDS011;22767;47.328;9.640;2023-02-28T16:27:16;15.63;;;11.85;;
36829;SDS011;22767;47.328;9.640;2023-02-28T16:29:43;17.83;;;12.60;;
36829;SDS011;22767;47.328;9.640;2023-02-28T16:32:11;16.73;;;12.52;;
36829;SDS011;22767;47.328;9.640;2023-02-28T16:34:38;16.20;;;12.80;;
36829;SDS011;22767;47.328;9.640;2023-02-28T16:37:07;16.70;;;12.57;;
36829;SDS011;22767;47.328;9.640;2023-02-28T16:39:36;17.27;;;12.48;;
36829;SDS011;22767;47.328;9.640;2023-02-28T16:42:02;19.38;;;14.27;;
36829;SDS011;22767;47.328;9.640;2023-02-28T16:44:33;17.15;;;13.38;;
36829;SDS011;22767;47.328;9.640;2023-02-28T16:46:59;17.70;;;13.85;;
36829;SDS011;22767;47.328;9.640;2023-02-28T16:49:26;17.08;;;13.77;;
36829;SDS011;22767;47.328;9.640;2023-02-28T16:51:53;17.20;;;13.45;;
36829;SDS011;22767;47.328;9.640;2023-02-28T16:54:19;15.80;;;12.63;;
36829;SDS011;22767;47.328;9.640;2023-02-28T16:56:46;16.10;;;12.60;;
36829;SDS011;22767;47.328;9.640;2023-02-28T16:59:13;20.05;;;14.35;;
36829;SDS011;22767;47.328;9.640;2023-02-28T17:01:40;17.13;;;12.85;;
36829;SDS011;22767;47.328;9.640;2023-02-28T17:04:08;17.27;;;12.88;;
36829;SDS011;22767;47.328;9.640;2023-02-28T17:06:34;19.73;;;13.88;;
36829;SDS011;22767;47.328;9.640;2023-02-28T17:09:01;17.25;;;12.77;;
36829;SDS011;22767;47.328;9.640;2023-02-28T17:11:27;18.52;;;13.60;;